createdAt,value
2018-12-01T00:00:22.055Z,96.66
2018-12-01T00:01:22.194Z,96.96
2018-12-01T00:02:22.022Z,96.68
2018-12-01T00:03:22.269Z,96.66
2018-12-01T00:04:22.211Z,96.67
2018-12-01T00:05:22.858Z,96.86
2018-12-01T00:06:22.230Z,96.69
2018-12-01T00:07:22.121Z,96.69
2018-12-01T00:08:22.222Z,96.54
2018-12-01T00:09:22.049Z,96.61
2018-12-01T00:10:22.227Z,96.57
2018-12-01T00:11:22.078Z,96.54
2018-12-01T00:12:22.092Z,96.55
2018-12-01T00:13:22.021Z,96.45
2018-12-01T00:14:22.012Z,96.62
2018-12-01T00:15:22.067Z,96.49
2018-12-01T00:16:22.032Z,96.63
2018-12-01T00:17:21.993Z,96.41
2018-12-01T00:18:22.002Z,96.5
2018-12-01T00:19:22.006Z,96.46
2018-12-01T00:20:22.037Z,96.36
2018-12-01T00:21:22.046Z,96.79
2018-12-01T00:22:22.263Z,96.68
2018-12-01T00:23:22.022Z,96.63
2018-12-01T00:24:21.988Z,96.51
2018-12-01T00:25:22.032Z,96.42
2018-12-01T00:26:22.040Z,96.46
2018-12-01T00:27:22.057Z,96.65
2018-12-01T00:28:21.985Z,96.7
2018-12-01T00:29:22.050Z,96.54
2018-12-01T00:30:22.042Z,96.61
2018-12-01T00:31:22.074Z,96.62
2018-12-01T00:32:22.022Z,96.56
2018-12-01T00:33:22.029Z,96.67
2018-12-01T00:34:22.050Z,96.57
2018-12-01T00:35:22.005Z,96.51
2018-12-01T00:36:22.330Z,96.64
2018-12-01T00:37:22.034Z,96.53
2018-12-01T00:38:22.205Z,96.58
2018-12-01T00:39:22.072Z,96.59
2018-12-01T00:40:22.133Z,96.57
2018-12-01T00:41:22.032Z,96.51
2018-12-01T00:42:21.977Z,96.69
2018-12-01T00:43:22.079Z,96.65
2018-12-01T00:44:22.071Z,96.65
2018-12-01T00:45:22.314Z,96.5
2018-12-01T00:46:22.115Z,96.65
2018-12-01T00:47:22.229Z,96.66
2018-12-01T00:48:22.705Z,96.68
2018-12-01T00:49:21.949Z,96.56
2018-12-01T00:50:22.078Z,96.59
2018-12-01T00:51:22.060Z,96.68
2018-12-01T00:52:22.167Z,96.72
2018-12-01T00:53:21.951Z,96.66
2018-12-01T00:54:22.003Z,96.52
2018-12-01T00:55:22.195Z,96.48
2018-12-01T00:56:22.345Z,96.58
2018-12-01T00:57:22.128Z,96.91
2018-12-01T00:58:22.190Z,96.83
2018-12-01T00:59:22.063Z,96.8
2018-12-01T01:00:21.993Z,96.8
2018-12-01T01:01:21.944Z,96.83
2018-12-01T01:02:22.091Z,96.99
2018-12-01T01:03:22.083Z,97.12
2018-12-01T01:04:21.958Z,96.87
2018-12-01T01:05:22.086Z,96.78
2018-12-01T01:06:22.007Z,96.8
2018-12-01T01:07:22.053Z,96.79
2018-12-01T01:08:21.948Z,96.58
2018-12-01T01:09:22.037Z,96.66
2018-12-01T01:10:22.320Z,96.71
2018-12-01T01:11:22.250Z,96.75
2018-12-01T01:12:21.954Z,96.68
2018-12-01T01:13:22.263Z,96.72
2018-12-01T01:14:22.092Z,96.66
2018-12-01T01:15:22.028Z,97.12
2018-12-01T01:16:22.409Z,96.76
2018-12-01T01:17:22.087Z,96.79
2018-12-01T01:18:22.068Z,96.76
2018-12-01T01:19:22.154Z,96.73
2018-12-01T01:20:22.520Z,96.81
2018-12-01T01:21:22.018Z,96.68
2018-12-01T01:22:22.296Z,96.64
2018-12-01T01:23:25.066Z,96.74
2018-12-01T01:24:22.316Z,96.64
2018-12-01T01:25:22.372Z,96.67
2018-12-01T01:26:22.069Z,96.53
2018-12-01T01:27:22.321Z,96.59
2018-12-01T01:28:22.117Z,96.6
2018-12-01T01:29:21.974Z,96.58
2018-12-01T01:30:22.057Z,96.58
2018-12-01T01:31:22.163Z,96.76
2018-12-01T01:32:21.998Z,96.58
2018-12-01T01:33:22.259Z,96.76
2018-12-01T01:34:21.981Z,96.49
2018-12-01T01:35:22.164Z,96.58
2018-12-01T01:36:21.999Z,96.58
2018-12-01T01:37:22.004Z,96.51
2018-12-01T01:38:22.066Z,96.46
2018-12-01T01:39:21.983Z,96.39
2018-12-01T01:40:22.008Z,96.66
2018-12-01T01:41:22.153Z,96.62
2018-12-01T01:42:21.903Z,96.52
2018-12-01T01:43:21.978Z,96.4
2018-12-01T01:44:22.276Z,96.56
2018-12-01T01:45:22.011Z,96.58
2018-12-01T01:46:21.976Z,96.63
2018-12-01T01:47:22.032Z,96.81
2018-12-01T01:48:22.259Z,96.63
2018-12-01T01:49:22.072Z,96.46
2018-12-01T01:50:21.901Z,96.73
2018-12-01T01:51:21.910Z,96.72
2018-12-01T01:52:21.934Z,96.49
2018-12-01T01:53:21.887Z,96.41
2018-12-01T01:54:21.939Z,96.25
2018-12-01T01:55:21.934Z,96.25
2018-12-01T01:56:21.895Z,96.25
2018-12-01T01:57:21.929Z,96.18
2018-12-01T01:58:21.899Z,96.5
2018-12-01T01:59:21.942Z,96.49
2018-12-01T02:00:22.012Z,96.3
2018-12-01T02:01:22.041Z,96.29
2018-12-01T02:02:21.910Z,96.35
2018-12-01T02:03:21.908Z,96.24
2018-12-01T02:04:21.973Z,96.17
2018-12-01T02:05:21.880Z,96.37
2018-12-01T02:06:21.906Z,96.27
2018-12-01T02:07:21.921Z,96.36
2018-12-01T02:08:21.960Z,96.53
2018-12-01T02:09:21.931Z,96.36
2018-12-01T02:10:22.369Z,96.23
2018-12-01T02:11:21.893Z,96.22
2018-12-01T02:12:21.893Z,96.2
2018-12-01T02:13:22.158Z,96.22
2018-12-01T02:14:21.921Z,96.07
2018-12-01T02:15:22.047Z,96.2
2018-12-01T02:16:22.101Z,96.18
2018-12-01T02:17:22.239Z,96.16
2018-12-01T02:18:21.941Z,96.13
2018-12-01T02:19:22.109Z,96.1
2018-12-01T02:20:21.932Z,96.08
2018-12-01T02:21:22.031Z,95.95
2018-12-01T02:22:21.921Z,95.95
2018-12-01T02:23:21.969Z,96
2018-12-01T02:24:21.869Z,95.94
2018-12-01T02:25:21.963Z,95.91
2018-12-01T02:26:22.130Z,95.85
2018-12-01T02:27:21.925Z,95.8
2018-12-01T02:28:21.913Z,95.83
2018-12-01T02:29:22.183Z,95.78
2018-12-01T02:30:22.339Z,95.79
2018-12-01T02:31:21.853Z,95.8
2018-12-01T02:32:21.894Z,95.72
2018-12-01T02:33:21.901Z,95.73
2018-12-01T02:34:22.083Z,95.65
2018-12-01T02:35:21.951Z,95.54
2018-12-01T02:36:22.041Z,95.59
2018-12-01T02:37:22.233Z,95.59
2018-12-01T02:38:22.152Z,95.53
2018-12-01T02:39:22.064Z,95.48
2018-12-01T02:40:21.977Z,95.5
2018-12-01T02:41:21.999Z,95.44
2018-12-01T02:42:21.948Z,95.42
2018-12-01T02:43:22.142Z,95.38
2018-12-01T02:44:22.150Z,95.38
2018-12-01T02:45:21.827Z,95.39
2018-12-01T02:46:21.867Z,95.31
2018-12-01T02:47:21.801Z,95.35
2018-12-01T02:48:21.905Z,95.33
2018-12-01T02:49:21.857Z,95.23
2018-12-01T02:50:21.880Z,95.12
2018-12-01T02:51:21.952Z,95.05
2018-12-01T02:52:22.089Z,94.93
2018-12-01T02:53:22.250Z,94.88
2018-12-01T02:54:21.941Z,94.96
2018-12-01T02:55:22.019Z,94.95
2018-12-01T02:56:22.088Z,94.95
2018-12-01T02:57:21.972Z,94.92
2018-12-01T02:58:21.942Z,94.91
2018-12-01T02:59:22.129Z,94.89
2018-12-01T03:00:22.170Z,94.83
2018-12-01T03:01:22.176Z,94.94
2018-12-01T03:02:21.966Z,94.94
2018-12-01T03:03:22.088Z,94.88
2018-12-01T03:04:21.956Z,94.97
2018-12-01T03:05:21.992Z,95.03
2018-12-01T03:06:21.944Z,94.96
2018-12-01T03:07:21.943Z,95.05
2018-12-01T03:08:22.120Z,95.02
2018-12-01T03:09:21.826Z,95.18
2018-12-01T03:10:21.945Z,95.07
2018-12-01T03:11:22.035Z,95.12
2018-12-01T03:12:21.973Z,95.08
2018-12-01T03:13:21.946Z,95.16
2018-12-01T03:14:21.918Z,95.08
2018-12-01T03:15:21.833Z,95.07
2018-12-01T03:16:21.966Z,95.08
2018-12-01T03:17:21.879Z,95.01
2018-12-01T03:18:21.977Z,95.05
2018-12-01T03:19:21.786Z,95.11
2018-12-01T03:20:22.093Z,95.1
2018-12-01T03:21:22.155Z,95.12
2018-12-01T03:22:21.942Z,95.15
2018-12-01T03:23:21.963Z,95.23
2018-12-01T03:24:21.822Z,95.2
2018-12-01T03:25:21.876Z,95.22
2018-12-01T03:26:21.786Z,95.18
2018-12-01T03:27:22.018Z,95.2
2018-12-01T03:28:21.983Z,95.34
2018-12-01T03:29:22.160Z,95.22
2018-12-01T03:30:21.798Z,95.15
2018-12-01T03:31:21.746Z,95.09
2018-12-01T03:32:21.772Z,95.04
2018-12-01T03:33:21.843Z,95.21
2018-12-01T03:34:21.780Z,95.08
2018-12-01T03:35:21.785Z,95.19
2018-12-01T03:36:22.354Z,95.1
2018-12-01T03:37:21.762Z,95.08
2018-12-01T03:38:22.022Z,95.06
2018-12-01T03:39:21.795Z,95.15
2018-12-01T03:40:22.009Z,95.14
2018-12-01T03:41:21.761Z,95.1
2018-12-01T03:42:21.886Z,95.11
2018-12-01T03:43:21.783Z,95.23
2018-12-01T03:44:21.775Z,95.35
2018-12-01T03:45:21.897Z,95.32
2018-12-01T03:46:21.772Z,95.55
2018-12-01T03:47:21.781Z,95.47
2018-12-01T03:48:21.754Z,95.36
2018-12-01T03:49:21.858Z,95.34
2018-12-01T03:50:21.755Z,95.41
2018-12-01T03:51:21.859Z,95.31
2018-12-01T03:52:21.940Z,95.74
2018-12-01T03:53:21.911Z,95.58
2018-12-01T03:54:21.746Z,95.49
2018-12-01T03:55:21.893Z,95.42
2018-12-01T03:56:21.735Z,95.34
2018-12-01T03:57:21.782Z,95.29
2018-12-01T03:58:21.950Z,95.25
2018-12-01T03:59:21.790Z,95.21
2018-12-01T04:00:21.965Z,95.25
2018-12-01T04:01:22.238Z,95.42
2018-12-01T04:02:21.856Z,95.34
2018-12-01T04:03:21.793Z,95.26
2018-12-01T04:04:21.709Z,95.19
2018-12-01T04:05:21.754Z,95.16
2018-12-01T04:06:21.719Z,95.13
2018-12-01T04:07:21.736Z,95.14
2018-12-01T04:08:21.889Z,95.17
2018-12-01T04:09:21.772Z,95.09
2018-12-01T04:10:21.702Z,95.12
2018-12-01T04:11:21.971Z,95.05
2018-12-01T04:12:21.981Z,95.09
2018-12-01T04:13:21.846Z,95.03
2018-12-01T04:14:21.998Z,95
2018-12-01T04:15:21.826Z,94.96
2018-12-01T04:16:21.760Z,94.88
2018-12-01T04:17:21.903Z,94.83
2018-12-01T04:18:21.885Z,94.79
2018-12-01T04:19:21.741Z,94.75
2018-12-01T04:20:21.700Z,94.7
2018-12-01T04:21:21.821Z,94.74
2018-12-01T04:22:21.707Z,94.78
2018-12-01T04:23:21.893Z,94.74
2018-12-01T04:24:21.745Z,94.74
2018-12-01T04:25:21.681Z,94.75
2018-12-01T04:26:21.775Z,94.7
2018-12-01T04:27:21.884Z,94.73
2018-12-01T04:28:21.847Z,94.68
2018-12-01T04:29:21.987Z,94.68
2018-12-01T04:30:21.989Z,94.69
2018-12-01T04:31:21.769Z,94.75
2018-12-01T04:32:21.946Z,94.61
2018-12-01T04:33:21.967Z,94.66
2018-12-01T04:34:21.747Z,94.6
2018-12-01T04:35:21.697Z,94.62
2018-12-01T04:36:21.735Z,94.55
2018-12-01T04:37:21.785Z,94.56
2018-12-01T04:38:21.863Z,94.56
2018-12-01T04:39:21.693Z,94.57
2018-12-01T04:40:21.788Z,94.59
2018-12-01T04:41:21.785Z,94.59
2018-12-01T04:42:21.918Z,94.72
2018-12-01T04:43:21.726Z,94.69
2018-12-01T04:44:21.832Z,94.69
2018-12-01T04:45:21.718Z,94.67
2018-12-01T04:46:22.012Z,94.83
2018-12-01T04:47:21.688Z,94.85
2018-12-01T04:48:21.789Z,94.98
2018-12-01T04:49:21.693Z,95.13
2018-12-01T04:50:21.707Z,95.06
2018-12-01T04:51:21.858Z,94.97
2018-12-01T04:52:21.778Z,94.86
2018-12-01T04:53:21.747Z,94.98
2018-12-01T04:54:21.657Z,94.89
2018-12-01T04:55:22.083Z,94.87
2018-12-01T04:56:21.669Z,94.84
2018-12-01T04:57:22.493Z,94.85
2018-12-01T04:58:21.756Z,94.88
2018-12-01T04:59:21.822Z,94.84
2018-12-01T05:00:21.899Z,94.98
2018-12-01T05:01:21.836Z,94.99
2018-12-01T05:02:21.682Z,94.95
2018-12-01T05:03:21.653Z,95.12
2018-12-01T05:04:21.750Z,95.42
2018-12-01T05:05:21.785Z,95.48
2018-12-01T05:06:21.648Z,95.45
2018-12-01T05:07:21.637Z,95.44
2018-12-01T05:08:21.650Z,95.33
2018-12-01T05:09:21.655Z,95.17
2018-12-01T05:10:21.656Z,95.12
2018-12-01T05:11:21.624Z,95.41
2018-12-01T05:12:21.670Z,95.39
2018-12-01T05:13:21.764Z,95.26
2018-12-01T05:14:21.629Z,95.41
2018-12-01T05:15:21.996Z,95.54
2018-12-01T05:16:21.888Z,95.3
2018-12-01T05:17:21.632Z,95.49
2018-12-01T05:18:21.623Z,95.49
2018-12-01T05:19:21.726Z,95.39
2018-12-01T05:20:21.677Z,95.45
2018-12-01T05:21:21.608Z,95.57
2018-12-01T05:22:21.641Z,95.72
2018-12-01T05:23:21.696Z,95.72
2018-12-01T05:24:21.598Z,95.7
2018-12-01T05:25:21.659Z,95.4
2018-12-01T05:26:21.669Z,95.34
2018-12-01T05:27:21.988Z,95.56
2018-12-01T05:28:21.585Z,95.56
2018-12-01T05:29:21.691Z,95.82
2018-12-01T05:30:21.658Z,95.78
2018-12-01T05:31:21.701Z,95.78
2018-12-01T05:32:21.665Z,95.67
2018-12-01T05:33:21.803Z,95.86
2018-12-01T05:34:21.684Z,95.54
2018-12-01T05:35:21.614Z,95.46
2018-12-01T05:36:21.639Z,95.35
2018-12-01T05:37:22.057Z,95.46
2018-12-01T05:38:22.458Z,95.37
2018-12-01T05:39:21.786Z,95.42
2018-12-01T05:40:21.642Z,95.4
2018-12-01T05:41:21.783Z,95.31
2018-12-01T05:42:21.787Z,95.48
2018-12-01T05:43:21.757Z,95.35
2018-12-01T05:44:21.634Z,95.35
2018-12-01T05:45:21.643Z,95.31
2018-12-01T05:46:21.697Z,95.24
2018-12-01T05:47:21.604Z,95.19
2018-12-01T05:48:21.885Z,95.16
2018-12-01T05:49:22.143Z,95.09
2018-12-01T05:50:21.596Z,95.08
2018-12-01T05:51:21.667Z,95.19
2018-12-01T05:52:21.782Z,95.17
2018-12-01T05:53:21.715Z,95.15
2018-12-01T05:54:21.706Z,95.15
2018-12-01T05:55:21.629Z,95.12
2018-12-01T05:56:21.578Z,95.15
2018-12-01T05:57:21.693Z,95.24
2018-12-01T05:58:21.706Z,95.17
2018-12-01T05:59:21.633Z,95.08
2018-12-01T06:00:22.004Z,95.19
2018-12-01T06:01:21.550Z,95.09
2018-12-01T06:02:21.641Z,95.04
2018-12-01T06:03:21.964Z,95.18
2018-12-01T06:04:21.617Z,95.08
2018-12-01T06:05:21.619Z,94.93
2018-12-01T06:06:21.632Z,94.97
2018-12-01T06:07:21.736Z,95.13
2018-12-01T06:08:21.595Z,95.07
2018-12-01T06:09:21.620Z,95.04
2018-12-01T06:10:22.183Z,95.14
2018-12-01T06:11:21.638Z,95.18
2018-12-01T06:12:21.848Z,95.46
2018-12-01T06:13:21.731Z,95.33
2018-12-01T06:14:21.708Z,95.66
2018-12-01T06:15:21.719Z,95.41
2018-12-01T06:16:21.958Z,95.47
2018-12-01T06:17:21.584Z,95.62
2018-12-01T06:18:21.717Z,95.54
2018-12-01T06:19:21.698Z,95.54
2018-12-01T06:20:21.604Z,95.68
2018-12-01T06:21:21.584Z,95.46
2018-12-01T06:22:21.593Z,95.5
2018-12-01T06:23:21.685Z,95.59
2018-12-01T06:24:21.676Z,95.69
2018-12-01T06:25:21.639Z,95.66
2018-12-01T06:26:21.729Z,95.87
2018-12-01T06:27:21.591Z,95.89
2018-12-01T06:28:21.729Z,95.9
2018-12-01T06:29:22.208Z,95.9
2018-12-01T06:30:21.531Z,95.9
2018-12-01T06:31:21.909Z,95.92
2018-12-01T06:32:21.628Z,95.93
2018-12-01T06:33:21.583Z,95.89
2018-12-01T06:34:21.692Z,95.77
2018-12-01T06:35:21.722Z,95.63
2018-12-01T06:36:21.554Z,95.54
2018-12-01T06:37:21.726Z,95.47
2018-12-01T06:38:21.607Z,95.54
2018-12-01T06:39:21.677Z,95.49
2018-12-01T06:40:21.658Z,95.54
2018-12-01T06:41:21.548Z,95.46
2018-12-01T06:42:21.569Z,95.47
2018-12-01T06:43:21.529Z,95.43
2018-12-01T06:44:21.525Z,95.45
2018-12-01T06:45:21.557Z,95.4
2018-12-01T06:46:21.533Z,95.49
2018-12-01T06:47:21.503Z,95.44
2018-12-01T06:48:21.561Z,95.59
2018-12-01T06:49:21.620Z,95.64
2018-12-01T06:50:21.779Z,95.58
2018-12-01T06:51:21.516Z,95.64
2018-12-01T06:52:21.502Z,95.74
2018-12-01T06:53:21.624Z,95.71
2018-12-01T06:54:21.521Z,95.87
2018-12-01T06:55:21.558Z,95.85
2018-12-01T06:56:21.503Z,95.8
2018-12-01T06:57:21.565Z,95.88
2018-12-01T06:58:21.512Z,95.84
2018-12-01T06:59:21.463Z,96.03
2018-12-01T07:00:21.549Z,95.79
2018-12-01T07:01:21.499Z,95.74
2018-12-01T07:02:21.551Z,95.95
2018-12-01T07:03:21.655Z,95.77
2018-12-01T07:04:21.601Z,95.91
2018-12-01T07:05:22.085Z,95.74
2018-12-01T07:06:21.534Z,95.83
2018-12-01T07:07:21.483Z,95.69
2018-12-01T07:08:21.515Z,95.63
2018-12-01T07:09:21.500Z,95.72
2018-12-01T07:10:21.608Z,95.65
2018-12-01T07:11:21.626Z,95.85
2018-12-01T07:12:21.481Z,95.91
2018-12-01T07:13:21.537Z,95.94
2018-12-01T07:14:21.454Z,96.07
2018-12-01T07:15:21.776Z,96.02
2018-12-01T07:16:21.745Z,95.89
2018-12-01T07:17:21.468Z,96
2018-12-01T07:18:21.609Z,95.9
2018-12-01T07:19:21.733Z,95.88
2018-12-01T07:20:21.721Z,96
2018-12-01T07:21:21.526Z,95.99
2018-12-01T07:22:21.546Z,95.97
2018-12-01T07:23:21.482Z,96.13
2018-12-01T07:24:21.595Z,96
2018-12-01T07:25:21.556Z,95.89
2018-12-01T07:26:21.536Z,95.91
2018-12-01T07:27:21.511Z,95.98
2018-12-01T07:28:21.584Z,96.03
2018-12-01T07:29:21.511Z,95.82
2018-12-01T07:30:21.487Z,95.92
2018-12-01T07:31:21.516Z,95.88
2018-12-01T07:32:21.449Z,95.83
2018-12-01T07:33:21.714Z,96.04
2018-12-01T07:34:21.503Z,95.96
2018-12-01T07:35:21.657Z,95.96
2018-12-01T07:36:21.481Z,95.89
2018-12-01T07:37:21.472Z,95.8
2018-12-01T07:38:21.646Z,95.97
2018-12-01T07:39:21.496Z,96.04
2018-12-01T07:40:21.476Z,95.86
2018-12-01T07:41:21.540Z,95.89
2018-12-01T07:42:21.447Z,96.03
2018-12-01T07:43:21.616Z,95.98
2018-12-01T07:44:21.541Z,96.14
2018-12-01T07:45:21.564Z,96.19
2018-12-01T07:46:21.598Z,96.22
2018-12-01T07:47:21.522Z,96.09
2018-12-01T07:48:21.510Z,96.25
2018-12-01T07:49:21.549Z,96.27
2018-12-01T07:50:21.902Z,96.22
2018-12-01T07:51:21.486Z,96.22
2018-12-01T07:52:21.953Z,96.2
2018-12-01T07:53:21.470Z,96.22
2018-12-01T07:54:21.435Z,96.43
2018-12-01T07:55:21.693Z,96.51
2018-12-01T07:56:21.416Z,96.44
2018-12-01T07:57:21.427Z,96.53
2018-12-01T07:58:21.407Z,96.54
2018-12-01T07:59:21.416Z,96.48
2018-12-01T08:00:21.681Z,96.51
2018-12-01T08:01:21.448Z,96.52
2018-12-01T08:02:21.639Z,96.43
2018-12-01T08:03:21.719Z,96.34
2018-12-01T08:04:21.710Z,96.41
2018-12-01T08:05:21.413Z,96.63
2018-12-01T08:06:21.454Z,96.72
2018-12-01T08:07:21.595Z,96.68
2018-12-01T08:08:21.491Z,96.61
2018-12-01T08:09:21.518Z,96.66
2018-12-01T08:10:21.586Z,96.71
2018-12-01T08:11:21.492Z,96.78
2018-12-01T08:12:21.441Z,96.8
2018-12-01T08:13:21.742Z,96.84
2018-12-01T08:14:21.438Z,96.78
2018-12-01T08:15:21.670Z,96.83
2018-12-01T08:16:21.732Z,96.91
2018-12-01T08:17:21.430Z,96.95
2018-12-01T08:18:21.464Z,97.03
2018-12-01T08:19:21.430Z,97
2018-12-01T08:20:21.456Z,96.73
2018-12-01T08:21:21.433Z,96.8
2018-12-01T08:22:21.441Z,96.67
2018-12-01T08:23:21.403Z,96.79
2018-12-01T08:24:21.421Z,96.65
2018-12-01T08:25:21.460Z,96.85
2018-12-01T08:26:21.401Z,96.72
2018-12-01T08:27:21.422Z,96.64
2018-12-01T08:28:21.531Z,96.56
2018-12-01T08:29:21.489Z,96.47
2018-12-01T08:30:21.444Z,96.43
2018-12-01T08:31:21.473Z,96.43
2018-12-01T08:32:21.373Z,96.44
2018-12-01T08:33:21.474Z,96.25
2018-12-01T08:34:21.393Z,96.28
2018-12-01T08:35:21.499Z,96.26
2018-12-01T08:36:21.430Z,96.06
2018-12-01T08:37:21.370Z,95.99
2018-12-01T08:38:21.391Z,96
2018-12-01T08:39:21.410Z,96.01
2018-12-01T08:40:21.664Z,95.93
2018-12-01T08:41:21.365Z,95.82
2018-12-01T08:42:21.396Z,95.88
2018-12-01T08:43:21.658Z,95.74
2018-12-01T08:44:21.488Z,95.57
2018-12-01T08:45:21.555Z,95.8
2018-12-01T08:46:21.503Z,95.73
2018-12-01T08:47:21.639Z,95.65
2018-12-01T08:48:21.423Z,95.73
2018-12-01T08:49:21.597Z,95.71
2018-12-01T08:50:21.665Z,95.83
2018-12-01T08:51:21.406Z,95.59
2018-12-01T08:52:21.461Z,95.39
2018-12-01T08:53:21.796Z,95.48
2018-12-01T08:54:21.370Z,95.69
2018-12-01T08:55:21.567Z,95.68
2018-12-01T08:56:22.593Z,95.54
2018-12-01T08:57:21.451Z,95.48
2018-12-01T08:58:21.793Z,95.53
2018-12-01T08:59:21.400Z,95.49
2018-12-01T09:00:21.456Z,95.53
2018-12-01T09:01:22.191Z,95.43
2018-12-01T09:02:21.449Z,95.18
2018-12-01T09:03:21.520Z,95.31
2018-12-01T09:04:21.454Z,95.12
2018-12-01T09:05:21.335Z,95.35
2018-12-01T09:06:21.619Z,95.28
2018-12-01T09:07:21.591Z,95.17
2018-12-01T09:08:21.532Z,95.32
2018-12-01T09:09:21.534Z,95.57
2018-12-01T09:10:21.420Z,95.25
2018-12-01T09:11:22.184Z,94.98
2018-12-01T09:12:21.390Z,94.77
2018-12-01T09:13:21.462Z,94.61
2018-12-01T09:14:21.729Z,94.63
2018-12-01T09:15:21.688Z,94.51
2018-12-01T09:16:21.478Z,95.22
2018-12-01T09:17:22.172Z,95.22
2018-12-01T09:18:21.542Z,94.87
2018-12-01T09:19:21.449Z,94.5
2018-12-01T09:20:21.669Z,94.32
2018-12-01T09:21:21.330Z,94.17
2018-12-01T09:22:21.432Z,94.25
2018-12-01T09:23:21.566Z,94.61
2018-12-01T09:24:21.342Z,94.79
2018-12-01T09:25:22.189Z,95.03
2018-12-01T09:26:21.569Z,94.59
2018-12-01T09:27:22.560Z,94.39
2018-12-01T09:28:21.491Z,94.38
2018-12-01T09:29:21.504Z,94.23
2018-12-01T09:30:21.529Z,94.17
2018-12-01T09:31:21.516Z,94.31
2018-12-01T09:32:21.325Z,94.31
2018-12-01T09:33:21.572Z,94.48
2018-12-01T09:34:21.395Z,94.16
2018-12-01T09:35:21.553Z,94.14
2018-12-01T09:36:21.711Z,94.42
2018-12-01T09:37:21.697Z,94.27
2018-12-01T09:38:21.349Z,94.33
2018-12-01T09:39:21.734Z,94.04
2018-12-01T09:40:21.409Z,93.81
2018-12-01T09:41:21.582Z,93.7
2018-12-01T09:42:24.758Z,93.73
2018-12-01T09:43:21.388Z,93.62
2018-12-01T09:44:21.391Z,93.71
2018-12-01T09:45:21.521Z,93.55
2018-12-01T09:46:21.478Z,93.21
2018-12-01T09:47:21.326Z,93.23
2018-12-01T09:48:21.502Z,93.04
2018-12-01T09:49:21.441Z,93.22
2018-12-01T09:50:21.478Z,93.05
2018-12-01T09:51:21.484Z,93.02
2018-12-01T09:52:21.394Z,93.19
2018-12-01T09:53:21.267Z,93.15
2018-12-01T09:54:21.350Z,93.28
2018-12-01T09:55:21.733Z,93.43
2018-12-01T09:56:21.325Z,93.11
2018-12-01T09:57:21.293Z,93.03
2018-12-01T09:58:21.303Z,92.95
2018-12-01T09:59:21.551Z,92.9
2018-12-01T10:00:21.376Z,93.05
2018-12-01T10:01:21.376Z,93.23
2018-12-01T10:02:21.286Z,93.06
2018-12-01T10:03:21.295Z,93.07
2018-12-01T10:04:21.501Z,93.03
2018-12-01T10:05:21.272Z,93.18
2018-12-01T10:06:21.314Z,93.1
2018-12-01T10:07:21.423Z,93.06
2018-12-01T10:08:21.291Z,93.38
2018-12-01T10:09:21.311Z,93.18
2018-12-01T10:10:21.291Z,92.76
2018-12-01T10:11:21.294Z,92.49
2018-12-01T10:12:21.220Z,92.52
2018-12-01T10:13:21.266Z,92.09
2018-12-01T10:14:21.268Z,92.2
2018-12-01T10:15:21.264Z,92.38
2018-12-01T10:16:21.274Z,92.18
2018-12-01T10:17:21.348Z,92.33
2018-12-01T10:18:21.289Z,92.15
2018-12-01T10:19:21.434Z,91.79
2018-12-01T10:20:21.567Z,92.07
2018-12-01T10:21:21.365Z,92.17
2018-12-01T10:22:21.362Z,92.07
2018-12-01T10:23:21.407Z,92.09
2018-12-01T10:24:21.413Z,92.02
2018-12-01T10:25:21.519Z,91.59
2018-12-01T10:26:21.293Z,91.74
2018-12-01T10:27:21.265Z,91.78
2018-12-01T10:28:21.563Z,91.56
2018-12-01T10:29:21.259Z,91.41
2018-12-01T10:30:21.273Z,91.57
2018-12-01T10:31:21.240Z,91.65
2018-12-01T10:32:21.506Z,91.85
2018-12-01T10:33:21.326Z,92.05
2018-12-01T10:34:21.418Z,91.85
2018-12-01T10:35:21.341Z,91.95
2018-12-01T10:36:22.069Z,91.72
2018-12-01T10:37:21.298Z,91.69
2018-12-01T10:38:21.327Z,91.76
2018-12-01T10:39:21.496Z,91.77
2018-12-01T10:40:21.322Z,91.86
2018-12-01T10:41:21.467Z,91.58
2018-12-01T10:42:21.232Z,91.16
2018-12-01T10:43:21.346Z,91.5
2018-12-01T10:44:21.226Z,91.41
2018-12-01T10:45:21.306Z,91.33
2018-12-01T10:46:21.555Z,91.2
2018-12-01T10:47:21.360Z,91.23
2018-12-01T10:48:21.560Z,91.07
2018-12-01T10:49:21.338Z,90.75
2018-12-01T10:50:21.370Z,90.82
2018-12-01T10:51:21.196Z,91.08
2018-12-01T10:52:21.573Z,91.09
2018-12-01T10:53:21.270Z,90.82
2018-12-01T10:54:21.291Z,90.38
2018-12-01T10:55:21.791Z,90.07
2018-12-01T10:56:21.338Z,90.38
2018-12-01T10:57:21.657Z,90.31
2018-12-01T10:58:21.414Z,90.28
2018-12-01T10:59:21.283Z,89.72
2018-12-01T11:00:21.305Z,90.14
2018-12-01T11:01:21.606Z,90.09
2018-12-01T11:02:21.454Z,89.96
2018-12-01T11:03:21.360Z,89.72
2018-12-01T11:04:21.234Z,89.84
2018-12-01T11:05:21.325Z,89.82
2018-12-01T11:06:21.408Z,90.13
2018-12-01T11:07:21.320Z,90.08
2018-12-01T11:08:21.417Z,89.78
2018-12-01T11:09:21.394Z,89.98
2018-12-01T11:10:21.278Z,89.79
2018-12-01T11:11:21.403Z,89.41
2018-12-01T11:12:21.320Z,88.9
2018-12-01T11:13:21.253Z,88.77
2018-12-01T11:14:21.370Z,89.06
2018-12-01T11:15:21.284Z,88.9
2018-12-01T11:16:21.330Z,89.18
2018-12-01T11:17:21.251Z,88.88
2018-12-01T11:18:21.337Z,89.54
2018-12-01T11:19:21.553Z,88.64
2018-12-01T11:20:21.198Z,89.18
2018-12-01T11:21:21.171Z,88.8
2018-12-01T11:22:21.539Z,88.97
2018-12-01T11:23:21.208Z,88.82
2018-12-01T11:24:21.208Z,88.77
2018-12-01T11:25:21.954Z,88.53
2018-12-01T11:26:21.446Z,88.21
2018-12-01T11:27:21.398Z,88.68
2018-12-01T11:28:21.415Z,88.93
2018-12-01T11:29:21.266Z,89.26
2018-12-01T11:30:21.191Z,89.44
2018-12-01T11:31:22.332Z,88.97
2018-12-01T11:32:21.389Z,88.37
2018-12-01T11:33:21.238Z,88.04
2018-12-01T11:34:21.302Z,88.31
2018-12-01T11:35:21.549Z,87.91
2018-12-01T11:36:21.167Z,87.86
2018-12-01T11:37:21.183Z,87.98
2018-12-01T11:38:21.228Z,87.96
2018-12-01T11:39:21.173Z,88.35
2018-12-01T11:40:21.226Z,88.13
2018-12-01T11:41:21.148Z,88.18
2018-12-01T11:42:21.188Z,88.22
2018-12-01T11:43:21.211Z,88.21
2018-12-01T11:44:21.181Z,88.31
2018-12-01T11:45:21.134Z,87.92
2018-12-01T11:46:21.428Z,87.21
2018-12-01T11:47:21.175Z,86.67
2018-12-01T11:48:21.142Z,86.16
2018-12-01T11:49:21.150Z,85.93
2018-12-01T11:50:21.120Z,85.53
2018-12-01T11:51:21.203Z,85.93
2018-12-01T11:52:21.346Z,86.19
2018-12-01T11:53:21.196Z,86.12
2018-12-01T11:54:21.286Z,85.57
2018-12-01T11:55:24.074Z,85.53
2018-12-01T11:56:21.423Z,85.67
2018-12-01T11:57:21.220Z,85.65
2018-12-01T11:58:21.252Z,85.26
2018-12-01T11:59:21.326Z,85.46
2018-12-01T12:00:21.114Z,85.7
2018-12-01T12:01:21.111Z,85.75
2018-12-01T12:02:21.194Z,85.38
2018-12-01T12:03:21.180Z,86
2018-12-01T12:04:21.124Z,85.97
2018-12-01T12:05:21.295Z,85.99
2018-12-01T12:06:21.369Z,85.81
2018-12-01T12:07:21.283Z,85.93
2018-12-01T12:08:21.147Z,85.42
2018-12-01T12:09:21.205Z,85.17
2018-12-01T12:10:21.223Z,84.82
2018-12-01T12:11:21.315Z,84.98
2018-12-01T12:12:21.181Z,85.35
2018-12-01T12:13:21.291Z,85.25
2018-12-01T12:14:21.694Z,84.55
2018-12-01T12:15:21.174Z,84.99
2018-12-01T12:16:21.222Z,84.87
2018-12-01T12:17:21.254Z,84.67
2018-12-01T12:18:21.145Z,84.53
2018-12-01T12:19:21.299Z,84.25
2018-12-01T12:20:21.466Z,83.77
2018-12-01T12:21:21.118Z,84.29
2018-12-01T12:22:21.320Z,84.34
2018-12-01T12:23:21.320Z,84.3
2018-12-01T12:24:21.110Z,84.96
2018-12-01T12:25:21.718Z,85.38
2018-12-01T12:26:21.121Z,84.85
2018-12-01T12:27:21.131Z,84.98
2018-12-01T12:28:21.090Z,84.52
2018-12-01T12:29:21.302Z,84.77
2018-12-01T12:30:25.790Z,84.79
2018-12-01T12:31:21.145Z,84.06
2018-12-01T12:32:21.220Z,84.44
2018-12-01T12:33:21.242Z,84.03
2018-12-01T12:34:21.488Z,84.6
2018-12-01T12:35:21.102Z,85.07
2018-12-01T12:36:21.153Z,84.98
2018-12-01T12:37:21.222Z,84.96
2018-12-01T12:38:21.092Z,84.39
2018-12-01T12:39:21.130Z,83.9
2018-12-01T12:40:21.483Z,84.53
2018-12-01T12:41:21.196Z,83.93
2018-12-01T12:42:21.154Z,83.98
2018-12-01T12:43:21.159Z,83.83
2018-12-01T12:44:21.380Z,83.68
2018-12-01T12:45:21.165Z,83.74
2018-12-01T12:46:22.199Z,83.3
2018-12-01T12:47:21.157Z,83.56
2018-12-01T12:48:21.235Z,83.07
2018-12-01T12:49:21.061Z,83.94
2018-12-01T12:50:21.150Z,83.41
2018-12-01T12:51:21.074Z,83.44
2018-12-01T12:52:21.363Z,83.82
2018-12-01T12:53:21.284Z,83.67
2018-12-01T12:54:21.037Z,83.92
2018-12-01T12:55:21.865Z,84.24